Werte bis 5 Uhr SommerzeitDiagramme Frankenhausen: Tagesdaten Monatsdaten WindroseCSV-Datei: Frankenhausen21.csv

Wetterdaten 2021 Station: Frankenhausen
Temperaturen in °C relative Nieder- Global- Wind Wind Wind- Sonnen-
Datum Boden Boden Luft Luft Luft Luft Feuchte schlag strahlung max richtung schein
20 cm 5 cm 20 cm 2 m 2 m max 2 m min % mm W/m2*d m/s m/s ° h

28.10.2021 9,9 8,6 7,3 8,6 9,3 8,0 100 0,0 0 2,7 5,6 --- ---
27.10.2021 9,8 9,5 9,9 10,9 13,8 8,2 96 0,0 692 2,6 8,0 --- 1,2
26.10.2021 9,4 9,3 9,7 10,8 14,3 8,2 91 0,1 1887 2,5 8,1 --- 6,3
25.10.2021 7,7 6,1 5,9 7,3 13,9 1,6 88 0,0 2421 2,3 7,9 --- 7,1
24.10.2021 7,9 5,8 3,9 5,3 12,6 -0,4 88 0,0 2768 2,0 8,4 --- 8,3
23.10.2021 8,7 6,8 4,4 5,8 11,4 2,1 92 0,0 1995 1,9 5,5 --- 7,2
22.10.2021 9,4 7,6 6,1 7,1 10,1 4,0 88 1,9 1545 4,8 14,2 --- 5,2
21.10.2021 11,7 11,0 9,9 11,0 15,9 5,8 85 4,7 1216 7,6 24,9 --- 2,7
20.10.2021 11,4 11,6 13,2 14,3 16,7 11,9 91 0,0 1005 4,8 14,9 --- 3,1
19.10.2021 10,3 9,9 10,2 10,8 13,3 8,4 100 0,0 608 3,6 9,6 --- 0,6
18.10.2021 9,9 8,8 7,1 7,7 13,1 3,4 96 0,0 2354 2,6 7,6 --- 6,7
17.10.2021 10,0 9,0 6,8 7,3 13,7 2,8 95 0,0 1679 1,5 5,2 --- 6,4
16.10.2021 9,9 8,4 5,7 5,8 10,3 2,0 99 0,0 1670 1,5 5,2 --- 5,9
15.10.2021 11,3 10,5 8,6 9,7 13,0 2,6 94 1,3 1279 2,9 8,9 --- 4,2
14.10.2021 11,1 10,6 10,1 10,7 12,9 8,8 98 1,1 469 1,9 6,3 --- 0,2
13.10.2021 10,6 9,7 8,3 8,6 11,8 6,2 96 1,1 1227 1,8 6,1 --- 4,2
12.10.2021 10,8 9,8 7,9 8,7 11,9 5,0 98 5,0 1155 2,1 10,1 --- 3,2
11.10.2021 10,2 8,8 7,6 8,1 13,2 3,1 97 0,7 1355 2,3 6,8 --- 5,3
10.10.2021 10,3 8,0 4,6 6,1 15,5 -0,8 87 0,1 3218 1,6 5,1 --- 8,6
09.10.2021 11,7 9,9 7,0 8,7 15,7 2,3 83 0,0 3628 1,7 6,4 --- 8,8
08.10.2021 12,7 11,8 8,9 9,5 16,4 4,7 95 0,1 2108 1,2 6,5 --- 6,9
07.10.2021 13,3 13,0 10,8 11,4 15,6 6,1 94 0,2 1904 1,2 5,4 --- 6,5
06.10.2021 13,1 12,4 11,0 11,4 13,8 10,0 91 0,7 2399 3,7 11,1 --- 6,7
05.10.2021 13,1 12,2 11,0 11,4 14,3 9,1 97 4,4 1344 2,2 8,4 --- 6,2
04.10.2021 14,1 13,4 11,8 12,6 15,4 9,5 89 0,0 1770 2,2 7,6 --- 7,5
03.10.2021 14,2 14,4 17,2 18,6 22,0 13,7 69 0,0 1384 4,9 16,2 --- 4,8
02.10.2021 13,4 13,0 13,2 14,1 18,0 11,0 83 0,0 1867 2,6 9,8 --- 7,0
01.10.2021 13,0 11,8 11,2 12,5 18,4 7,7 71 0,1 3824 3,1 9,9 --- 8,7
30.09.2021 13,2 11,7 9,6 10,5 15,1 6,2 80 0,0 3543 3,2 9,6 --- 8,7
29.09.2021 14,4 12,9 10,4 11,1 16,5 7,9 93 5,5 2062 2,6 19,0 --- 6,2
28.09.2021 15,6 15,1 12,4 12,9 18,8 8,8 91 0,8 3609 1,3 5,3 --- 8,8
27.09.2021 16,4 16,8 16,7 17,2 20,8 12,6 94 4,0 2061 2,5 14,0 --- 7,0
26.09.2021 15,6 16,1 16,6 17,5 24,0 11,1 91 1,4 3223 1,7 8,0 --- 8,0
25.09.2021 15,3 15,3 14,6 15,6 21,3 10,4 92 0,0 2076 1,6 5,5 --- 8,7
24.09.2021 15,4 15,4 14,7 15,5 19,3 12,7 94 0,7 1207 2,3 8,9 --- 3,5
23.09.2021 14,7 14,4 14,2 14,8 21,9 7,9 79 0,0 4143 4,2 15,0 --- 8,8
22.09.2021 14,7 14,4 12,4 13,1 19,8 8,4 90 0,0 3381 1,4 6,7 --- 9,2
21.09.2021 14,5 14,0 11,3 11,8 16,7 8,7 83 0,0 3554 1,4 6,3 --- 9,0
20.09.2021 14,1 12,6 9,9 10,1 14,0 5,0 83 0,0 2093 1,7 8,1 --- 7,6
19.09.2021 15,6 14,4 12,5 12,9 14,2 8,9 84 0,0 1286 2,6 8,0 --- 6,0
18.09.2021 16,4 16,2 13,9 14,3 18,7 11,0 91 0,0 3138 1,3 5,3 --- 8,2
17.09.2021 16,3 15,8 14,4 15,1 18,1 11,9 92 0,3 2079 1,8 6,6 --- 8,0
16.09.2021 17,2 16,8 15,2 15,7 17,2 13,0 92 0,0 1839 2,6 8,3 --- 5,8
15.09.2021 17,8 18,3 18,5 19,1 21,9 16,7 97 0,9 1763 2,0 9,1 --- 7,6
14.09.2021 16,8 16,8 15,8 16,9 25,9 8,7 89 0,1 4459 1,1 5,2 --- 9,3
13.09.2021 17,0 16,6 14,2 14,9 20,7 9,9 89 0,0 4069 0,9 5,9 --- 9,3
12.09.2021 17,7 17,8 16,3 16,8 22,0 12,1 92 1,7 2621 1,4 4,9 --- 7,5
11.09.2021 18,4 18,8 17,8 18,4 22,7 14,4 93 6,5 2995 1,8 9,3 --- 9,1
10.09.2021 18,6 19,7 19,7 20,4 25,2 18,2 92 0,2 2983 1,7 7,6 --- 6,9
09.09.2021 17,4 17,9 18,3 19,8 27,7 11,2 81 0,0 5059 2,0 7,5 --- 10,1
08.09.2021 17,1 17,2 16,5 17,7 26,2 9,6 80 0,0 5354 1,4 6,9 --- 10,6
07.09.2021 17,1 17,5 16,4 17,4 24,1 11,6 80 0,0 4540 1,0 4,0 --- 10,8
06.09.2021 16,5 16,5 15,0 15,8 24,7 8,5 82 0,0 4982 1,3 6,2 --- 10,0
05.09.2021 16,1 15,9 13,6 14,4 24,0 7,0 85 0,1 5367 1,1 4,4 --- 10,4
04.09.2021 16,4 15,9 13,3 13,9 20,6 10,2 95 0,2 3095 1,2 4,9 --- 8,6
03.09.2021 16,9 17,3 15,4 16,1 24,8 10,3 87 0,1 4915 1,0 5,3 --- 10,1
02.09.2021 16,1 16,2 14,2 14,9 23,5 8,3 89 0,0 4472 0,9 5,5 --- 9,6
01.09.2021 16,1 16,0 14,5 15,0 19,4 11,3 89 0,1 3067 1,5 4,9 --- 9,1
31.08.2021 16,2 16,2 15,3 15,9 21,0 12,3 89 0,4 3604 2,5 8,4 --- 9,0
30.08.2021 16,1 15,9 15,1 15,6 17,4 14,4 98 0,6 1499 3,6 8,8 --- 4,7
29.08.2021 16,2 15,9 14,2 14,6 16,0 13,4 100 9,3 1423 3,0 7,6 --- 5,3
28.08.2021 16,1 16,3 14,3 14,4 18,5 11,5 93 9,0 4068 2,0 7,8 --- 8,9
27.08.2021 15,9 14,9 12,8 13,2 15,7 11,4 99 27,5 1808 3,4 10,1 --- 6,4
26.08.2021 17,1 17,0 14,4 14,7 19,7 11,9 92 3,0 3870 3,7 11,1 --- 7,7
25.08.2021 16,4 16,4 14,2 15,1 21,9 6,1 78 0,0 5469 2,0 8,6 --- 10,1
24.08.2021 16,3 15,6 13,4 14,2 20,7 8,2 82 0,0 5026 2,2 8,2 --- 11,2
23.08.2021 17,4 17,0 15,2 15,9 21,1 10,1 91 0,8 2916 2,1 9,6 --- 5,9
22.08.2021 18,4 18,5 16,9 17,2 22,4 14,7 96 11,7 2436 1,8 13,2 --- 7,1
21.08.2021 18,2 19,1 17,6 18,2 25,6 12,2 84 0,0 4751 1,5 4,7 --- 10,4
20.08.2021 17,9 18,4 16,6 17,2 22,4 12,4 86 0,0 3531 1,6 7,3 --- 9,1
19.08.2021 17,6 17,7 16,3 16,7 19,3 14,6 95 4,0 2053 2,2 8,1 --- 7,0
18.08.2021 17,1 17,2 15,9 16,1 19,5 12,6 86 0,2 2948 3,1 9,4 --- 9,6
17.08.2021 17,0 15,9 13,8 14,2 18,7 10,9 78 0,1 3297 4,4 13,2 --- 8,9
16.08.2021 19,2 18,7 15,2 16,1 20,6 12,0 85 4,0 3058 3,8 13,7 --- 6,7
15.08.2021 19,9 20,8 18,2 19,1 27,5 11,7 77 0,0 5689 2,0 7,6 --- 11,3
14.08.2021 20,2 21,2 18,6 19,7 28,1 10,7 74 0,0 5812 2,2 8,9 --- 11,7
13.08.2021 20,2 21,7 20,0 20,8 29,7 13,8 81 0,0 5344 2,3 9,4 --- 11,1
12.08.2021 19,2 20,5 19,5 20,3 27,8 13,4 80 0,0 5712 1,5 6,6 --- 11,5
11.08.2021 18,5 19,5 17,7 17,9 25,1 12,2 84 0,1 5646 1,3 4,9 --- 11,2
10.08.2021 17,5 17,9 16,7 16,9 24,0 12,5 87 3,3 4891 2,2 8,6 --- 9,1
09.08.2021 17,4 17,1 15,9 16,4 22,2 12,2 83 1,0 3634 2,5 9,4 --- 9,5
08.08.2021 17,8 17,9 16,1 17,1 22,0 13,3 75 0,0 4478 3,6 11,4 --- 10,6
07.08.2021 18,2 18,5 17,4 18,2 22,6 14,0 82 0,1 4509 3,3 10,8 --- 12,1
06.08.2021 18,3 18,7 16,9 17,4 24,1 12,9 88 0,1 3912 2,3 9,5 --- 10,6
05.08.2021 18,4 19,2 17,1 17,3 23,0 13,4 90 6,6 4878 1,4 6,4 --- 9,6
04.08.2021 17,8 17,9 16,2 16,3 21,7 11,9 91 8,7 3980 1,2 5,9 --- 10,0
03.08.2021 18,0 17,9 15,2 15,4 20,0 10,1 89 0,0 3202 1,2 6,3 --- 10,4
02.08.2021 18,5 18,9 16,0 16,2 20,1 13,0 84 0,0 4763 1,9 7,7 --- 11,6
01.08.2021 18,2 18,3 15,9 16,1 20,6 13,0 95 8,5 2954 1,3 6,9 --- 9,6
31.07.2021 18,7 18,5 16,9 17,9 22,6 13,2 68 0,0 4324 3,6 11,5 --- 11,3
30.07.2021 18,8 19,2 18,1 19,1 26,3 11,5 68 0,0 6966 2,6 8,6 --- 12,3
29.07.2021 19,1 19,0 17,3 18,3 23,5 13,0 68 0,0 5581 3,4 14,1 --- 11,9
28.07.2021 19,7 20,0 18,0 18,3 24,2 14,2 87 11,8 5602 2,8 9,4 --- 10,3
27.07.2021 20,2 20,9 18,9 19,4 26,8 14,8 84 3,8 5121 2,2 10,5 --- 10,5
26.07.2021 20,6 21,6 20,0 20,5 27,4 15,6 82 4,7 5686 2,0 7,8 --- 11,5
25.07.2021 20,5 21,9 20,3 20,9 27,5 15,0 84 0,0 5967 1,9 7,4 --- 12,7
24.07.2021 19,9 20,7 19,0 19,8 27,3 11,6 84 0,1 4538 1,5 7,9 --- 9,6
23.07.2021 19,7 21,1 17,9 18,8 25,4 12,4 81 0,0 7142 1,2 5,4 --- 12,4
22.07.2021 18,7 19,3 17,7 18,3 25,3 11,0 82 0,0 4380 0,8 3,8 --- 12,1
21.07.2021 18,4 18,6 16,2 16,4 22,7 9,9 87 0,0 4226 1,1 5,0 --- 11,4
20.07.2021 18,6 18,3 14,6 15,0 20,9 9,7 81 0,0 5506 1,5 7,2 --- 12,3
19.07.2021 19,6 19,8 17,0 17,3 21,8 11,9 83 0,0 4529 2,3 7,7 --- 10,1
18.07.2021 19,1 19,8 18,0 18,9 25,5 12,3 86 0,0 6737 2,0 7,7 --- 11,4
17.07.2021 19,0 19,4 18,8 19,2 25,3 15,4 86 0,0 4461 3,2 10,2 --- 11,2
16.07.2021 19,4 19,4 17,5 17,8 19,2 16,0 99 0,0 1966 2,4 6,7 --- 7,2
15.07.2021 19,2 20,5 19,1 19,4 25,3 13,5 85 0,0 6960 1,4 5,8 --- 13,1
14.07.2021 18,9 18,6 16,6 16,6 18,3 16,0 100 32,4 1229 2,3 7,3 --- 3,0
13.07.2021 19,7 20,3 18,7 19,1 24,5 14,1 97 0,2 2924 1,2 6,0 --- 7,3
12.07.2021 19,5 21,1 19,4 19,5 26,5 13,6 86 0,0 6538 1,3 5,8 --- 11,8
11.07.2021 18,7 18,9 17,1 17,6 21,4 12,8 97 3,6 3391 1,2 6,8 --- 10,6
10.07.2021 18,6 19,3 17,6 17,7 22,7 13,7 92 0,4 4821 1,6 6,3 --- 11,0
09.07.2021 18,4 18,0 15,8 16,1 17,8 15,2 99 3,7 1579 2,3 8,5 --- 5,7
08.07.2021 19,1 19,6 18,1 18,4 25,1 13,6 88 5,2 3885 1,2 5,8 --- 9,4
07.07.2021 18,9 19,8 18,6 18,9 25,1 13,6 80 0,0 6869 2,0 8,7 --- 11,5
06.07.2021 18,7 19,0 18,6 18,9 22,6 16,0 92 4,2 2970 2,9 11,5 --- 9,0
05.07.2021 18,8 19,0 17,6 17,7 22,3 13,7 93 1,6 3715 2,2 7,4 --- 9,6
04.07.2021 19,3 20,1 17,9 17,9 25,9 12,4 90 0,9 5150 1,4 10,5 --- 9,7
03.07.2021 18,3 19,6 17,2 17,4 25,8 10,7 83 0,1 7539 1,4 4,9 --- 11,9
02.07.2021 17,0 17,0 14,9 15,1 20,7 11,5 94 1,4 3384 1,4 4,6 --- 9,3
01.07.2021 17,6 16,5 13,7 13,8 15,1 12,9 100 12,0 1005 2,0 9,0 --- 1,5
30.06.2021 19,8 19,9 17,7 17,6 20,4 15,1 92 2,2 3196 1,8 6,9 --- 10,2
29.06.2021 20,4 21,9 20,5 20,4 26,7 17,0 88 8,9 5256 1,8 9,6 --- 10,2
28.06.2021 20,2 21,3 21,0 21,5 26,6 16,6 82 4,8 3427 1,3 7,6 --- 10,2
27.06.2021 19,7 20,9 19,4 20,0 26,9 11,3 72 0,0 7586 1,5 7,5 --- 12,6
26.06.2021 19,3 20,4 17,7 18,3 26,2 9,4 77 0,0 8108 1,3 6,8 --- 13,6
25.06.2021 18,9 19,9 17,5 17,7 22,6 12,9 85 5,3 5600 1,5 5,7 --- 12,6
24.06.2021 18,3 18,5 16,4 16,5 21,3 13,4 97 27,5 2946 1,3 5,4 --- 7,0
23.06.2021 18,2 18,5 16,4 16,5 21,4 12,8 91 0,1 3988 2,0 5,2 --- 10,5
22.06.2021 18,6 18,2 14,9 14,9 18,6 12,4 91 0,5 3575 2,4 7,2 --- 9,4
21.06.2021 20,8 21,4 19,5 19,3 25,3 13,8 91 21,2 4548 3,0 11,3 --- 10,9
20.06.2021 22,4 24,4 23,2 23,4 28,1 18,8 79 11,8 6878 2,3 10,8 --- 12,4
19.06.2021 22,7 25,9 24,6 25,4 32,5 18,1 68 0,1 8010 1,5 7,5 --- 13,1
18.06.2021 22,1 25,1 24,3 25,1 33,9 15,4 68 0,0 6952 1,5 9,7 --- 12,4
17.06.2021 21,6 24,8 24,9 25,7 32,9 16,3 62 0,0 8308 2,1 8,2 --- 13,4
16.06.2021 20,3 23,0 21,3 21,6 29,9 11,0 74 0,0 7603 1,8 6,7 --- 13,4
15.06.2021 19,8 22,1 18,2 18,8 25,3 11,3 81 0,7 7094 1,9 7,4 --- 13,0
14.06.2021 19,1 21,6 18,2 18,5 28,4 8,2 70 0,0 8617 1,7 7,2 --- 13,9
13.06.2021 18,1 20,0 14,6 15,0 21,1 9,1 70 0,0 8617 2,6 8,3 --- 13,7
12.06.2021 18,6 19,7 17,2 17,8 22,0 12,6 80 0,0 4447 3,6 13,0 --- 11,0
11.06.2021 18,9 21,3 19,2 19,7 26,3 11,5 77 0,0 7426 2,2 8,8 --- 13,2
10.06.2021 18,7 20,7 19,0 19,4 25,4 13,9 80 1,2 7538 1,9 8,0 --- 12,7
09.06.2021 17,8 20,0 19,3 20,0 26,4 12,9 81 2,7 6794 1,3 6,6 --- 13,4
08.06.2021 17,1 18,3 17,2 17,8 21,8 13,5 89 0,0 4257 1,5 5,9 --- 13,0
07.06.2021 16,8 18,2 17,2 17,3 20,4 14,8 89 0,0 4428 2,3 6,2 --- 11,4
06.06.2021 16,9 17,4 16,4 16,6 18,5 15,0 98 0,0 1778 3,1 7,2 --- 5,0
05.06.2021 17,9 19,9 19,2 19,5 24,4 15,2 92 2,9 4675 2,1 7,3 --- 10,3
04.06.2021 17,6 19,9 19,8 20,3 25,7 15,5 91 0,6 4861 1,2 8,1 --- 10,8
03.06.2021 17,1 18,9 18,5 19,4 26,2 13,8 73 0,1 4660 1,8 7,4 --- 10,9
02.06.2021 16,8 19,6 18,3 19,3 26,7 10,3 62 0,0 8165 2,0 7,9 --- 12,6
01.06.2021 15,6 17,7 15,3 16,4 24,0 5,2 59 0,0 8021 1,5 8,3 --- 13,5
31.05.2021 14,9 17,2 14,8 15,7 22,5 6,1 62 0,0 8408 1,6 6,8 --- 13,3
30.05.2021 13,1 14,4 11,9 12,7 21,1 3,5 74 0,0 7558 2,0 10,4 --- 12,5
29.05.2021 12,9 13,1 10,0 10,5 16,2 6,3 89 0,1 4542 1,7 7,4 --- 10,5
28.05.2021 12,8 14,2 12,2 12,4 17,7 9,0 82 0,4 6852 2,6 8,6 --- 11,2
27.05.2021 11,5 11,4 10,0 10,2 11,9 8,2 93 6,2 2517 3,8 10,8 --- 9,6
26.05.2021 11,6 11,7 10,3 10,2 15,0 8,0 86 0,2 3988 3,7 11,9 --- 11,6
25.05.2021 12,3 12,3 9,6 9,6 13,2 7,5 88 3,2 4008 4,4 15,2 --- 10,6
24.05.2021 12,6 13,9 12,9 13,2 19,6 6,8 68 0,0 6947 4,0 15,2 --- 11,2
23.05.2021 11,6 11,9 10,4 10,9 15,6 6,5 76 0,0 4580 3,4 12,1 --- 9,9
22.05.2021 12,1 11,7 10,5 10,7 13,5 7,6 83 2,2 3516 5,1 15,4 --- 10,6
21.05.2021 13,1 14,2 13,5 13,9 17,8 9,8 63 0,1 7096 4,6 14,5 --- 11,4
20.05.2021 12,6 13,6 11,6 11,9 17,3 7,3 80 0,1 4781 1,7 6,7 --- 10,6
19.05.2021 11,9 12,4 9,5 9,9 15,5 3,8 91 4,9 4886 1,4 11,6 --- 9,6
18.05.2021 11,9 12,4 10,4 10,6 14,2 7,2 93 3,5 3589 1,9 8,6 --- 8,0
17.05.2021 11,7 12,2 10,9 10,9 15,5 7,1 92 3,0 4616 2,8 13,2 --- 9,0
16.05.2021 12,1 13,0 11,4 11,2 15,8 8,2 89 3,3 4833 2,8 10,9 --- 10,1
15.05.2021 12,0 12,5 10,7 10,6 14,6 6,8 91 0,7 4370 3,1 12,0 --- 10,0
14.05.2021 12,3 13,2 12,1 12,7 17,4 9,4 84 0,1 3506 1,6 6,6 --- 9,6
13.05.2021 12,3 13,4 12,3 12,7 17,7 9,3 89 0,0 3439 1,3 6,2 --- 7,6
12.05.2021 12,2 13,3 12,7 13,1 15,3 10,0 89 0,5 3237 2,6 7,9 --- 10,4
11.05.2021 12,2 13,4 13,6 14,0 16,0 12,4 100 4,6 1520 1,8 4,8 --- 5,2
10.05.2021 12,5 14,7 16,8 18,5 24,3 13,6 62 6,5 3553 3,3 16,5 --- 9,0
09.05.2021 11,0 13,8 17,4 19,5 27,2 9,8 45 0,0 7411 4,2 13,9 --- 12,3
08.05.2021 8,5 9,0 8,7 9,5 14,6 1,0 59 0,1 5200 3,1 11,3 --- 10,7
07.05.2021 8,7 8,6 5,4 5,9 10,4 2,1 83 1,2 4040 3,3 12,0 --- 9,6
06.05.2021 8,4 8,5 6,2 6,7 11,7 2,9 78 1,6 3582 2,6 9,7 --- 8,3
05.05.2021 8,6 8,6 6,4 7,0 10,3 4,2 73 0,9 4123 5,7 17,0 --- 9,6
04.05.2021 8,9 9,1 9,4 10,2 14,7 7,9 60 0,0 3238 6,8 20,9 --- 8,8
03.05.2021 8,7 9,1 7,3 7,9 12,8 1,4 65 0,0 4811 2,9 13,8 --- 11,3
02.05.2021 8,9 8,5 6,5 6,9 10,2 4,2 76 0,0 3213 4,1 11,6 --- 9,8
01.05.2021 9,1 9,5 8,2 8,6 12,1 5,2 84 0,0 3442 1,8 5,7 --- 10,5
30.04.2021 9,1 9,1 7,4 7,8 9,8 5,3 89 0,3 1771 1,9 11,2 --- 6,9
29.04.2021 10,2 11,2 10,0 10,4 15,2 7,3 82 5,6 4357 3,8 16,6 --- 8,5
28.04.2021 9,3 10,7 10,2 11,6 19,6 0,0 46 0,0 6040 1,9 7,2 --- 10,7
27.04.2021 8,4 9,1 7,3 8,1 13,7 0,7 42 0,0 7284 3,1 9,0 --- 11,9
26.04.2021 7,7 8,3 5,2 6,2 13,4 -2,7 54 0,0 7277 1,8 7,6 --- 12,2
25.04.2021 7,5 6,9 3,8 4,6 10,5 -0,5 72 0,0 5125 2,7 8,2 --- 12,1
24.04.2021 7,9 8,0 4,8 5,8 11,8 -0,8 76 0,0 5839 1,9 12,1 --- 11,1
23.04.2021 7,7 7,6 5,1 6,1 12,5 0,1 76 0,0 5423 2,3 7,4 --- 10,4
22.04.2021 8,3 7,9 5,6 6,1 11,2 1,1 67 0,0 5344 3,7 12,3 --- 10,4
21.04.2021 9,0 9,7 8,4 9,2 16,7 1,7 74 0,0 6044 3,0 10,4 --- 11,1
20.04.2021 8,7 9,9 9,0 9,9 16,7 3,5 82 0,0 5622 2,0 7,0 --- 11,0
19.04.2021 8,0 9,1 8,6 9,0 14,0 5,7 88 0,2 3275 1,3 6,5 --- 8,7
18.04.2021 6,8 7,5 7,8 8,4 13,7 4,0 88 1,8 2518 1,6 8,8 --- 6,7
17.04.2021 6,0 5,7 5,1 5,9 9,1 0,5 73 0,0 1944 2,2 8,3 --- 6,8
16.04.2021 5,9 6,1 5,9 6,3 11,0 0,5 65 0,0 5027 2,8 8,4 --- 10,7
15.04.2021 5,2 4,6 2,1 2,7 8,2 -2,1 82 0,0 3520 1,9 11,3 --- 9,8
14.04.2021 5,4 4,9 1,8 2,4 7,9 -1,3 92 0,9 4490 2,0 14,1 --- 9,6
13.04.2021 5,2 4,6 2,2 3,0 9,1 -1,6 82 0,0 4428 2,5 10,1 --- 9,3
12.04.2021 5,7 5,1 2,8 3,2 6,8 0,4 88 0,2 3382 3,1 8,6 --- 9,7
11.04.2021 6,9 6,9 6,0 6,6 13,0 0,6 98 10,5 1122 3,3 9,3 --- 2,2
10.04.2021 6,4 6,9 6,8 7,0 9,6 3,8 96 10,1 1991 2,1 7,5 --- 6,9
09.04.2021 5,0 5,2 5,9 6,8 13,1 0,7 65 0,1 4847 3,2 11,2 --- 10,2
08.04.2021 4,4 3,6 2,2 2,7 5,4 0,9 79 0,0 2289 3,8 9,5 --- 9,0
07.04.2021 4,3 3,3 1,1 1,3 4,5 -0,8 92 3,1 1746 4,7 19,0 --- 6,7
06.04.2021 4,4 3,0 0,4 0,6 4,0 -1,4 92 1,2 3657 5,0 16,2 --- 7,8
05.04.2021 5,4 3,8 1,2 1,9 6,1 -0,9 91 3,4 1900 4,9 15,9 --- 5,4
04.04.2021 6,6 5,9 3,6 4,1 6,5 -0,1 82 0,0 2281 2,7 7,7 --- 8,7
03.04.2021 7,2 6,8 4,9 5,5 10,0 1,9 80 0,0 3549 3,7 8,8 --- 7,9
02.04.2021 8,1 7,9 6,1 6,3 10,1 4,4 78 0,0 3751 4,4 12,0 --- 7,8
01.04.2021 8,9 9,6 10,3 11,6 20,1 5,2 69 0,0 4793 3,2 11,6 --- 9,6
31.03.2021 8,3 9,3 11,7 13,8 24,4 5,0 52 0,0 5464 2,7 6,8 --- 10,6
30.03.2021 7,7 8,6 10,1 12,2 23,3 3,6 56 0,0 5501 1,9 6,5 --- 10,5
29.03.2021 7,2 8,4 11,3 13,1 21,0 7,3 50 0,0 5177 3,0 10,0 --- 10,2
28.03.2021 5,3 5,0 6,2 7,2 12,9 0,3 75 0,0 2351 3,4 13,0 --- 7,9
27.03.2021 6,6 6,2 4,9 5,9 11,0 0,7 82 2,6 2931 4,5 17,0 --- 6,9
26.03.2021 7,2 8,2 9,9 10,9 15,6 7,0 74 0,0 3804 3,1 10,7 --- 9,2
25.03.2021 5,9 6,6 7,8 8,9 15,6 2,9 77 0,0 2957 2,0 5,7 --- 9,1
24.03.2021 5,1 5,5 6,2 7,4 15,6 0,8 77 0,0 4957 2,5 7,2 --- 9,9
23.03.2021 5,0 5,2 5,1 5,8 10,1 3,0 84 0,0 1738 1,8 5,7 --- 7,0
22.03.2021 4,3 4,2 4,0 4,4 8,0 2,1 93 0,2 2069 3,8 10,4 --- 5,6
21.03.2021 4,2 4,0 4,3 4,7 6,9 3,2 85 0,0 1908 5,4 14,2 --- 7,2
20.03.2021 3,4 3,0 0,9 1,3 4,7 -3,5 59 0,0 4060 1,5 6,5 --- 8,7
19.03.2021 3,6 2,9 1,8 2,1 5,7 -0,4 83 0,1 3466 3,7 11,1 --- 9,0
18.03.2021 3,4 2,5 0,8 1,4 5,8 -2,4 94 0,8 2020 1,5 7,4 --- 5,6
17.03.2021 3,9 3,0 1,3 2,1 5,1 -0,6 88 0,0 1513 2,0 6,4 --- 4,2
16.03.2021 4,5 4,1 3,5 4,1 8,3 0,9 89 0,2 2708 4,2 12,1 --- 6,7
15.03.2021 4,6 4,3 4,0 4,4 7,0 2,6 93 1,8 1940 4,8 15,7 --- 6,4
14.03.2021 4,6 4,2 4,2 4,9 7,4 3,5 86 1,8 2042 4,5 11,1 --- 5,9
13.03.2021 5,0 4,7 4,9 5,7 7,8 3,6 88 4,2 1874 7,2 26,9 --- 6,0
12.03.2021 5,2 5,2 5,5 6,3 9,8 3,6 79 3,7 2851 6,0 17,0 --- 7,1
11.03.2021 5,0 5,5 7,1 7,9 13,7 4,9 86 4,0 2021 5,9 21,5 --- 5,5
10.03.2021 4,0 4,3 4,5 4,8 8,0 1,8 90 0,0 2073 2,1 10,9 --- 6,6
09.03.2021 3,3 2,5 1,3 1,5 3,1 -0,4 96 5,6 993 1,9 6,8 --- 3,4
08.03.2021 3,3 3,0 1,9 2,4 6,8 -0,2 82 0,3 3101 1,6 4,8 --- 6,6
07.03.2021 2,9 1,5 -0,7 0,0 4,0 -4,2 87 0,0 3070 2,1 8,7 --- 8,7
06.03.2021 3,3 2,2 -0,7 0,3 6,9 -4,8 85 0,0 4200 1,2 5,3 --- 9,6
05.03.2021 4,3 3,5 1,3 1,9 5,1 -2,3 83 0,1 2959 2,9 7,8 --- 7,9
04.03.2021 4,9 4,4 3,6 4,3 7,6 2,3 100 3,1 760 2,3 6,7 --- 2,3
03.03.2021 4,8 4,5 5,0 6,2 15,3 0,7 88 0,0 2634 2,7 6,6 --- 7,9
02.03.2021 4,8 4,7 4,0 4,8 15,0 -0,1 88 0,0 3171 1,6 5,1 --- 7,7
01.03.2021 4,9 4,5 3,5 4,1 10,6 1,3 99 0,1 1819 1,2 4,6 --- 5,9
28.02.2021 5,2 5,2 4,0 4,5 8,8 1,1 97 0,0 2583 1,2 5,4 --- 7,0
27.02.2021 5,0 4,1 3,0 3,5 4,4 2,4 99 0,0 739 2,3 5,9 --- 1,5
26.02.2021 6,5 6,3 6,0 6,9 9,0 2,8 91 3,3 1179 2,5 9,9 --- 3,2
25.02.2021 7,0 8,0 10,4 12,0 18,9 6,5 78 0,0 2955 2,2 7,0 --- 7,7
24.02.2021 6,7 8,1 11,6 13,2 18,4 8,1 77 0,0 2852 3,0 8,6 --- 7,9
23.02.2021 5,4 6,4 9,5 10,8 17,4 5,8 79 0,0 2700 2,8 10,1 --- 7,6
22.02.2021 4,5 4,6 6,6 7,9 14,1 2,1 80 0,0 2906 2,6 9,2 --- 7,3
21.02.2021 4,8 5,6 9,1 11,0 17,3 6,8 63 0,0 3145 3,4 12,3 --- 8,2
20.02.2021 3,7 4,4 7,6 8,8 15,6 3,3 83 0,0 2635 3,3 10,8 --- 7,1
19.02.2021 2,8 3,3 4,7 5,9 9,2 2,2 86 0,0 2749 2,8 12,6 --- 7,6
18.02.2021 1,4 1,1 4,2 5,3 7,8 1,8 90 0,0 1508 3,2 8,5 --- 5,8
17.02.2021 1,2 0,5 3,6 5,3 7,9 2,8 94 0,4 1875 2,4 7,1 --- 6,2
16.02.2021 1,4 0,6 2,3 3,2 6,3 0,3 96 0,0 1864 3,2 10,7 --- 6,0
15.02.2021 1,4 0,7 -3,7 -3,1 0,5 -8,3 75 1,9 940 4,0 12,0 --- 3,1
14.02.2021 1,5 0,7 -11,3 -10,0 -2,4 -18,4 86 0,0 2202 1,9 7,2 --- 7,8
13.02.2021 1,6 0,8 -16,1 -13,6 -5,5 -20,8 88 0,0 1768 0,6 3,1 --- 5,8
12.02.2021 1,6 0,8 -14,9 -12,4 -4,3 -18,2 87 0,0 2001 1,2 9,7 --- 7,1
11.02.2021 1,7 0,8 -8,7 -7,0 -3,1 -17,0 91 0,0 1759 1,7 5,8 --- 6,9
10.02.2021 1,8 0,9 -15,0 -13,9 -5,3 -23,2 92 0,0 1329 0,8 5,5 --- 5,4
09.02.2021 1,9 0,9 -13,7 -11,7 -8,2 -17,0 92 0,1 2396 1,0 2,7 --- 7,2
08.02.2021 2,1 1,0 -8,5 -8,4 -6,7 -10,3 92 7,8 1676 3,0 9,0 --- 5,2
07.02.2021 2,4 1,3 -5,3 -5,2 -1,8 -6,7 96 4,0 575 5,0 16,1 --- 1,4
06.02.2021 3,7 3,0 1,4 1,6 5,1 -1,9 100 0,4 275 3,6 13,8 --- ---
05.02.2021 3,9 3,5 3,6 4,3 5,4 2,4 98 5,3 352 1,7 8,4 --- ---
04.02.2021 4,7 5,2 5,8 6,7 9,1 3,1 90 1,4 1360 2,9 9,2 --- 5,3
03.02.2021 3,9 5,0 7,8 8,8 11,0 7,7 98 3,6 403 3,5 12,2 --- 0,1
02.02.2021 1,6 1,3 3,4 4,2 8,6 1,8 100 1,8 465 1,8 7,1 --- 0,3
01.02.2021 1,4 0,4 0,3 0,7 2,8 -1,4 98 0,1 757 1,9 5,6 --- 3,0
31.01.2021 1,8 0,7 -1,8 -1,3 1,8 -4,7 86 0,0 1940 2,1 7,5 --- 6,3
30.01.2021 2,7 2,1 0,4 0,8 6,6 -1,2 93 1,3 814 4,0 15,3 --- 3,0
29.01.2021 2,0 2,0 3,2 3,7 8,1 0,7 99 13,4 404 2,9 11,2 --- 0,8
28.01.2021 1,7 0,8 1,1 1,6 3,0 0,6 100 5,4 311 1,6 8,0 --- ---
27.01.2021 1,7 0,8 -0,1 0,5 1,7 -0,6 99 0,8 693 2,5 10,0 --- 2,1
26.01.2021 1,8 0,8 -0,1 0,4 1,5 -2,5 98 1,7 559 3,3 11,2 --- 1,4
25.01.2021 2,0 1,0 -2,5 -1,4 1,8 -5,0 99 0,1 1174 1,0 3,6 --- 5,6
24.01.2021 2,4 1,2 -0,1 0,6 1,9 -3,3 100 5,2 432 2,1 8,1 --- 0,6
23.01.2021 2,9 2,0 1,1 1,7 3,6 0,2 100 0,0 848 2,1 7,1 --- 2,6
22.01.2021 4,1 4,1 4,2 5,3 9,7 0,3 94 2,2 685 4,2 19,8 --- 2,0
21.01.2021 3,4 3,6 6,2 7,5 10,1 5,2 75 1,1 934 6,1 23,2 --- 3,0
20.01.2021 2,6 2,6 4,3 5,2 8,2 2,2 80 0,0 939 4,0 10,7 --- 2,9
19.01.2021 1,4 0,9 2,9 3,6 6,1 1,7 98 5,1 270 5,3 13,4 --- ---
18.01.2021 1,3 0,4 1,4 2,3 3,7 -0,3 98 0,3 530 2,7 8,9 --- 0,7
17.01.2021 1,4 0,4 -1,9 -1,7 -0,3 -3,1 96 1,1 779 2,3 6,9 --- 3,2
16.01.2021 1,6 0,6 -1,6 -1,3 0,2 -2,3 80 0,0 426 2,5 8,0 --- ---
15.01.2021 1,7 0,7 -1,1 -0,6 0,4 -2,3 96 0,0 378 2,3 7,9 --- 0,3
14.01.2021 1,9 0,9 -0,1 0,4 1,2 -0,2 93 0,0 510 3,4 14,7 --- 0,9
13.01.2021 2,0 1,1 1,3 2,1 3,3 0,7 92 1,0 425 5,2 15,0 --- 0,7
12.01.2021 2,1 1,4 1,3 1,9 4,2 0,3 99 4,7 361 4,0 11,0 --- 0,2
11.01.2021 2,0 1,0 -0,2 0,2 1,4 -1,2 90 0,0 795 3,6 10,0 --- 3,3
10.01.2021 2,1 1,1 -0,2 0,4 1,9 -0,5 98 0,0 636 1,5 5,6 --- 2,0
09.01.2021 2,2 1,2 -0,4 0,1 0,9 -0,6 99 0,0 435 1,6 6,0 --- ---
08.01.2021 2,2 1,2 0,1 0,4 0,8 -0,1 100 1,5 242 1,6 7,5 --- ---
07.01.2021 2,4 1,3 0,1 0,6 1,8 -0,1 98 0,5 391 1,9 6,4 --- 0,1
06.01.2021 2,7 1,8 0,7 1,1 1,8 0,1 100 0,2 159 2,6 6,0 --- ---
05.01.2021 2,6 1,6 0,5 0,9 1,7 0,4 100 0,0 192 2,3 5,4 --- ---
04.01.2021 2,6 1,6 -0,1 0,5 1,0 0,1 100 0,0 274 1,2 3,6 --- ---
03.01.2021 2,9 1,9 0,8 1,3 2,3 0,1 93 1,9 293 2,7 8,2 --- ---
02.01.2021 3,0 2,3 1,5 2,0 3,4 1,2 98 0,0 393 1,2 4,6 --- ---
01.01.2021 2,9 2,0 0,8 1,4 3,0 0,5 99 0,0 380 0,9 3,6 --- 0,6

Mittelwerte (Temperaturen, Strahlung, rel. Feuchte, Wind), Summe (Regen) für 2021
11,2 11,3 9,8 10,5 86 507 3.345 2,5

Landesbetrieb Landwirtschaft Hessen 2009

      Werte bis 5 Uhr SommerzeitCSV-Datei: Frankenhausen21.csvDiagramm: Frankenhausen